createdAt,value
2018-11-02T00:02:04.468Z,77.43
2018-11-02T00:04:35.132Z,74.97
2018-11-02T00:07:06.392Z,74.70
2018-11-02T00:09:37.327Z,74.83
2018-11-02T00:12:07.880Z,73.63
2018-11-02T00:14:39.179Z,74.90
2018-11-02T00:17:10.571Z,72.80
2018-11-02T00:19:41.325Z,70.23
2018-11-02T00:22:12.310Z,74.73
2018-11-02T00:24:43.077Z,74.33
2018-11-02T00:27:14.357Z,75.60
2018-11-02T00:29:45.205Z,77.20
2018-11-02T00:32:16.225Z,74.63
2018-11-02T00:34:47.783Z,72.53
2018-11-02T00:37:19.226Z,68.57
2018-11-02T00:39:50.961Z,70.03
2018-11-02T00:42:21.485Z,64.73
2018-11-02T00:44:52.302Z,67.90
2018-11-02T00:47:22.911Z,66.57
2018-11-02T00:49:53.382Z,69.27
2018-11-02T00:52:24.423Z,66.37
2018-11-02T00:54:55.480Z,69.23
2018-11-02T00:57:26.306Z,65.90
2018-11-02T00:59:57.659Z,70.63
2018-11-02T01:02:28.452Z,73.50
2018-11-02T01:04:59.833Z,71.30
2018-11-02T01:07:29.914Z,69.33
2018-11-02T01:10:00.896Z,66.03
2018-11-02T01:12:31.818Z,69.23
2018-11-02T01:15:02.535Z,69.93
2018-11-02T01:17:33.563Z,65.50
2018-11-02T01:20:04.797Z,69.17
2018-11-02T01:22:35.803Z,67.30
2018-11-02T01:25:06.966Z,71.60
2018-11-02T01:27:37.393Z,75.13
2018-11-02T01:30:08.383Z,71.93
2018-11-02T01:32:38.716Z,74.60
2018-11-02T01:35:09.954Z,73.30
2018-11-02T01:37:40.798Z,73.67
2018-11-02T01:40:10.843Z,72.43
2018-11-02T01:42:41.579Z,76.63
2018-11-02T01:45:12.334Z,73.53
2018-11-02T01:47:42.511Z,75.50
2018-11-02T01:50:12.968Z,69.30
2018-11-02T01:52:43.698Z,69.90
2018-11-02T01:55:14.397Z,68.90
2018-11-02T01:57:45.273Z,69.33
2018-11-02T02:00:16.108Z,70.33
2018-11-02T02:02:46.663Z,69.93
2018-11-02T02:05:17.578Z,70.13
2018-11-02T02:07:48.262Z,70.43
2018-11-02T02:10:18.476Z,69.30
2018-11-02T02:12:49.585Z,73.13
2018-11-02T02:15:20.496Z,66.10
2018-11-02T02:17:51.347Z,70.33
2018-11-02T02:20:22.362Z,70.43
2018-11-02T02:22:52.866Z,68.57
2018-11-02T02:25:23.526Z,71.03
2018-11-02T02:27:54.528Z,70.83
2018-11-02T02:30:25.137Z,66.40
2018-11-02T02:32:56.655Z,67.03
2018-11-02T02:35:27.535Z,67.47
2018-11-02T02:37:58.644Z,66.63
2018-11-02T02:40:29.411Z,66.97
2018-11-02T02:42:59.951Z,67.23
2018-11-02T02:45:31.022Z,66.23
2018-11-02T02:48:01.700Z,67.07
2018-11-02T02:50:33.106Z,61.60
2018-11-02T02:53:03.870Z,61.90
2018-11-02T02:55:34.821Z,63.07
2018-11-02T02:58:05.888Z,61.87
2018-11-02T03:00:36.924Z,60.73
2018-11-02T03:03:08.014Z,61.40
2018-11-02T03:05:37.973Z,61.80
2018-11-02T03:08:08.749Z,61.63
2018-11-02T03:10:39.606Z,61.13
2018-11-02T03:13:10.130Z,59.43
2018-11-02T03:15:40.923Z,57.27
2018-11-02T03:18:11.802Z,59.50
2018-11-02T03:20:42.845Z,58.17
2018-11-02T03:23:13.874Z,59.93
2018-11-02T03:25:44.466Z,60.57
2018-11-02T03:28:14.859Z,61.43
2018-11-02T03:30:45.517Z,59.47
2018-11-02T03:33:15.627Z,59.20
2018-11-02T03:35:46.356Z,57.63
2018-11-02T03:38:17.080Z,59.33
2018-11-02T03:40:47.787Z,62.67
2018-11-02T03:43:17.875Z,61.97
2018-11-02T03:45:48.755Z,60.07
2018-11-02T03:48:19.563Z,59.47
2018-11-02T03:50:50.377Z,59.37
2018-11-02T03:53:21.091Z,60.67
2018-11-02T03:55:51.418Z,57.90
2018-11-02T03:58:22.934Z,54.40
2018-11-02T04:00:54.100Z,59.03
2018-11-02T04:03:25.955Z,56.90
2018-11-02T04:05:56.002Z,56.23
2018-11-02T04:08:27.036Z,56.00
2018-11-02T04:10:57.759Z,55.77
2018-11-02T04:13:28.005Z,53.03
2018-11-02T04:15:59.368Z,55.60
2018-11-02T04:18:30.722Z,55.53
2018-11-02T04:21:01.014Z,53.97
2018-11-02T04:23:30.917Z,52.53
2018-11-02T04:26:01.398Z,53.67
2018-11-02T04:28:32.164Z,52.53
2018-11-02T04:31:03.549Z,53.27
2018-11-02T04:33:34.802Z,53.70
2018-11-02T04:36:06.342Z,54.23
2018-11-02T04:38:37.139Z,52.27
2018-11-02T04:41:07.897Z,53.80
2018-11-02T04:43:38.671Z,51.77
2018-11-02T04:46:09.626Z,53.13
2018-11-02T04:48:40.256Z,52.67
2018-11-02T04:51:11.463Z,53.60
2018-11-02T04:53:42.632Z,51.90
2018-11-02T04:56:13.697Z,52.17
2018-11-02T04:58:44.119Z,50.33
2018-11-02T05:01:14.691Z,49.20
2018-11-02T05:03:45.688Z,52.20
2018-11-02T05:06:16.753Z,50.47
2018-11-02T05:08:47.311Z,52.63
2018-11-02T05:11:18.600Z,54.60
2018-11-02T05:13:49.797Z,53.60
2018-11-02T05:16:21.325Z,55.13
2018-11-02T05:18:52.319Z,54.43
2018-11-02T05:21:23.001Z,53.63
2018-11-02T05:23:53.818Z,50.50
2018-11-02T05:26:25.516Z,55.17
2018-11-02T05:28:55.939Z,55.63
2018-11-02T05:31:27.132Z,53.50
2018-11-02T05:33:59.358Z,52.87
2018-11-02T05:36:31.378Z,51.83
2018-11-02T05:39:02.159Z,54.60
2018-11-02T05:41:33.479Z,54.47
2018-11-02T05:44:04.322Z,54.10
2018-11-02T05:46:35.600Z,53.73
2018-11-02T05:49:07.354Z,52.70
2018-11-02T05:51:38.201Z,49.10
2018-11-02T05:54:09.186Z,47.80
2018-11-02T05:56:40.365Z,48.67
2018-11-02T05:59:12.188Z,48.23
2018-11-02T06:01:42.792Z,46.40
2018-11-02T06:04:13.891Z,45.00
2018-11-02T06:06:45.785Z,47.53
2018-11-02T06:09:16.942Z,46.37
2018-11-02T06:11:48.157Z,48.57
2018-11-02T06:14:19.379Z,48.03
2018-11-02T06:16:50.589Z,50.23
2018-11-02T06:19:21.388Z,47.80
2018-11-02T06:21:51.587Z,49.83
2018-11-02T06:24:22.491Z,48.90
2018-11-02T06:26:53.111Z,49.57
2018-11-02T06:29:23.874Z,50.17
2018-11-02T06:31:54.762Z,52.33
2018-11-02T06:34:25.517Z,51.20
2018-11-02T06:36:56.443Z,28.47
2018-11-02T06:39:27.261Z,30.27
2018-11-02T06:41:57.942Z,30.57
2018-11-02T06:44:28.698Z,15.37
2018-11-02T06:46:59.298Z,29.43
2018-11-02T06:49:30.155Z,10.73
2018-11-02T06:52:01.706Z,20.10
2018-11-02T06:54:33.323Z,20.90
2018-11-02T06:57:03.740Z,56.93
2018-11-02T06:59:34.896Z,55.40
2018-11-02T07:02:05.822Z,55.50
2018-11-02T07:04:37.513Z,57.47
2018-11-02T07:07:08.220Z,56.43
2018-11-02T07:09:39.393Z,54.63
2018-11-02T07:12:10.857Z,55.00
2018-11-02T07:14:41.713Z,53.93
2018-11-02T07:17:11.649Z,54.23
2018-11-02T07:19:42.471Z,53.37
2018-11-02T07:22:12.415Z,40.00
2018-11-02T07:24:42.448Z,24.70
2018-11-02T07:27:13.441Z,28.23
2018-11-02T07:29:44.225Z,26.57
2018-11-02T07:32:15.228Z,22.63
2018-11-02T07:34:46.281Z,18.73
2018-11-02T07:37:17.448Z,21.67
2018-11-02T07:39:48.584Z,24.40
2018-11-02T07:42:19.309Z,25.27
2018-11-02T07:44:49.726Z,26.60
2018-11-02T07:47:21.318Z,26.80
2018-11-02T07:49:52.468Z,25.07
2018-11-02T07:52:23.797Z,24.03
2018-11-02T07:54:55.430Z,24.27
2018-11-02T07:57:27.661Z,24.00
2018-11-02T07:59:59.114Z,24.77
2018-11-02T08:02:30.575Z,24.57
2018-11-02T08:05:01.829Z,24.10
2018-11-02T08:07:32.822Z,24.33
2018-11-02T08:10:03.626Z,24.40
2018-11-02T08:12:34.651Z,24.90
2018-11-02T08:15:06.549Z,25.57
2018-11-02T08:17:38.146Z,25.20
2018-11-02T08:20:11.171Z,25.03
2018-11-02T08:22:44.005Z,24.67
2018-11-02T08:25:14.842Z,23.67
2018-11-02T08:27:46.575Z,23.83
2018-11-02T08:30:17.762Z,22.50
2018-11-02T08:32:49.161Z,25.10
2018-11-02T08:35:20.373Z,24.30
2018-11-02T08:37:51.626Z,23.50
2018-11-02T08:40:23.187Z,23.10
2018-11-02T08:42:54.414Z,23.00
2018-11-02T08:45:25.918Z,22.80
2018-11-02T08:47:57.664Z,24.20
2018-11-02T08:50:28.992Z,24.53
2018-11-02T08:52:59.924Z,23.67
2018-11-02T08:55:31.300Z,22.53
2018-11-02T08:58:02.578Z,23.73
2018-11-02T09:00:32.929Z,23.07
2018-11-02T09:03:03.282Z,23.00
2018-11-02T09:05:34.308Z,24.27
2018-11-02T09:08:05.422Z,21.63
2018-11-02T09:10:37.383Z,22.87
2018-11-02T09:13:08.504Z,21.73
2018-11-02T09:15:39.316Z,21.07
2018-11-02T09:18:10.362Z,19.77
2018-11-02T09:20:41.585Z,20.17
2018-11-02T09:23:12.580Z,19.73
2018-11-02T09:25:44.307Z,20.23
2018-11-02T09:28:16.406Z,21.07
2018-11-02T09:30:47.375Z,20.67
2018-11-02T09:33:18.391Z,20.93
2018-11-02T09:35:50.676Z,20.20
2018-11-02T09:38:22.130Z,21.53
2018-11-02T09:40:53.073Z,19.73
2018-11-02T09:43:23.992Z,19.37
2018-11-02T09:45:55.453Z,19.20
2018-11-02T09:48:27.162Z,18.63
2018-11-02T09:50:58.183Z,18.27
2018-11-02T09:53:29.406Z,19.03
2018-11-02T09:55:59.909Z,19.83
2018-11-02T09:58:31.141Z,20.27
2018-11-02T10:01:02.005Z,21.00
2018-11-02T10:03:33.139Z,20.47
2018-11-02T10:06:04.203Z,17.53
2018-11-02T10:08:35.432Z,18.13
2018-11-02T10:11:06.799Z,22.80
2018-11-02T10:13:38.630Z,22.70
2018-11-02T10:16:10.196Z,20.63
2018-11-02T10:18:41.490Z,21.93
2018-11-02T10:21:12.948Z,21.30
2018-11-02T10:23:44.135Z,23.10
2018-11-02T10:26:15.713Z,21.07
2018-11-02T10:28:46.336Z,20.87
2018-11-02T10:31:16.743Z,20.27
2018-11-02T10:33:48.163Z,20.10
2018-11-02T10:36:19.543Z,20.87
2018-11-02T10:38:51.048Z,21.73
2018-11-02T10:41:27.515Z,23.03
2018-11-02T10:43:58.817Z,20.53
2018-11-02T10:46:29.805Z,21.93
2018-11-02T10:49:00.573Z,22.27
2018-11-02T10:51:31.994Z,22.20
2018-11-02T10:54:02.573Z,22.50
2018-11-02T10:56:33.430Z,21.13
2018-11-02T10:59:04.351Z,22.57
2018-11-02T11:01:40.366Z,24.00
2018-11-02T11:04:11.947Z,22.87
2018-11-02T11:06:43.386Z,21.73
2018-11-02T11:09:14.579Z,21.60
2018-11-02T11:11:46.113Z,22.83
2018-11-02T11:14:17.150Z,24.03
2018-11-02T11:16:47.604Z,21.50
2018-11-02T11:19:18.684Z,22.57
2018-11-02T11:21:49.407Z,23.43
2018-11-02T11:24:20.880Z,22.63
2018-11-02T11:26:52.603Z,20.83
2018-11-02T11:29:22.966Z,18.90
2018-11-02T11:31:54.071Z,19.33
2018-11-02T11:34:25.460Z,22.40
2018-11-02T11:36:57.808Z,21.40
2018-11-02T11:39:28.205Z,21.53
2018-11-02T11:41:58.781Z,20.27
2018-11-02T11:44:29.731Z,22.17
2018-11-02T11:46:59.746Z,22.53
2018-11-02T11:49:30.779Z,23.47
2018-11-02T11:52:18.100Z,20.47
2018-11-02T11:54:48.005Z,20.83
2018-11-02T11:57:18.025Z,20.13
2018-11-02T11:59:48.130Z,22.80
2018-11-02T12:02:18.758Z,22.93
2018-11-02T12:04:49.104Z,23.07
2018-11-02T12:07:19.898Z,23.87
2018-11-02T12:09:50.524Z,23.00
2018-11-02T12:12:27.575Z,25.33
2018-11-02T12:15:01.130Z,25.93
2018-11-02T12:17:32.477Z,25.53
2018-11-02T12:20:03.917Z,25.33
2018-11-02T12:22:35.214Z,23.57
2018-11-02T12:25:06.936Z,23.53
2018-11-02T12:27:39.007Z,23.87
2018-11-02T12:30:11.033Z,23.87
2018-11-02T12:32:44.185Z,24.23
2018-11-02T12:35:16.812Z,24.93
2018-11-02T12:37:48.083Z,24.13
2018-11-02T12:40:20.128Z,24.77
2018-11-02T12:42:52.194Z,25.63
2018-11-02T12:45:23.475Z,24.27
2018-11-02T12:47:54.636Z,25.63
2018-11-02T12:50:28.321Z,24.13
2018-11-02T12:53:00.608Z,24.87
2018-11-02T12:55:32.412Z,23.20
2018-11-02T12:58:03.911Z,24.50
2018-11-02T13:00:35.443Z,24.20
2018-11-02T13:03:06.587Z,25.13
2018-11-02T13:05:38.265Z,24.10
2018-11-02T13:08:09.071Z,24.10
2018-11-02T13:10:39.912Z,23.70
2018-11-02T13:13:11.178Z,23.93
2018-11-02T13:15:42.445Z,26.03
2018-11-02T13:18:13.483Z,23.00
2018-11-02T13:20:44.772Z,21.60
2018-11-02T13:23:15.882Z,22.60
2018-11-02T13:25:47.671Z,21.77
2018-11-02T13:28:18.905Z,22.50
2018-11-02T13:30:49.754Z,23.00
2018-11-02T13:33:20.901Z,23.17
2018-11-02T13:35:51.893Z,23.27
2018-11-02T13:38:22.871Z,23.70
2018-11-02T13:40:53.652Z,23.07
2018-11-02T13:43:25.598Z,23.37
2018-11-02T13:45:57.027Z,22.80
2018-11-02T13:48:27.874Z,23.20
2018-11-02T13:50:58.280Z,24.67
2018-11-02T13:53:28.556Z,24.53
2018-11-02T13:55:59.277Z,23.93
2018-11-02T13:58:30.623Z,24.20
2018-11-02T14:01:01.968Z,24.30
2018-11-02T14:03:32.567Z,23.10
2018-11-02T14:06:03.558Z,23.23
2018-11-02T14:08:34.921Z,24.20
2018-11-02T14:11:06.446Z,23.67
2018-11-02T14:13:38.564Z,22.23
2018-11-02T14:16:09.594Z,23.93
2018-11-02T14:18:41.667Z,23.67
2018-11-02T14:21:12.834Z,22.63
2018-11-02T14:23:44.429Z,24.00
2018-11-02T14:26:15.301Z,23.00
2018-11-02T14:28:47.410Z,23.63
2018-11-02T14:31:18.659Z,24.37
2018-11-02T14:33:49.703Z,23.07
2018-11-02T14:36:20.696Z,23.47
2018-11-02T14:38:51.718Z,23.23
2018-11-02T14:41:23.113Z,24.53
2018-11-02T14:43:54.836Z,23.90
2018-11-02T14:46:26.249Z,22.53
2018-11-02T14:48:57.743Z,17.07
2018-11-02T14:51:29.148Z,16.67
2018-11-02T14:54:00.547Z,20.27
2018-11-02T14:56:31.786Z,23.43
2018-11-02T14:59:02.965Z,23.73
2018-11-02T15:01:34.464Z,22.40
2018-11-02T15:04:07.015Z,22.10
2018-11-02T15:06:37.898Z,23.53
2018-11-02T15:09:12.629Z,28.10
2018-11-02T15:11:43.469Z,28.77
2018-11-02T15:14:13.376Z,23.37
2018-11-02T15:16:44.635Z,23.57
2018-11-02T15:19:15.856Z,24.00
2018-11-02T15:21:47.317Z,23.73
2018-11-02T15:24:18.491Z,22.13
2018-11-02T15:26:49.430Z,25.17
2018-11-02T15:29:20.425Z,21.27
2018-11-02T15:31:52.322Z,22.20
2018-11-02T15:34:24.043Z,23.67
2018-11-02T15:36:55.251Z,21.77
2018-11-02T15:39:25.668Z,24.30
2018-11-02T15:41:58.703Z,23.30
2018-11-02T15:44:29.101Z,22.73
2018-11-02T15:47:00.319Z,21.40
2018-11-02T15:49:30.754Z,22.00
2018-11-02T15:52:02.498Z,23.17
2018-11-02T15:54:34.716Z,22.27
2018-11-02T15:57:06.006Z,23.80
2018-11-02T15:59:36.841Z,23.17
2018-11-02T16:02:08.434Z,24.07
2018-11-02T16:04:39.327Z,25.20
2018-11-02T16:07:10.478Z,25.47
2018-11-02T16:09:42.254Z,26.03
2018-11-02T16:12:13.345Z,23.17
2018-11-02T16:14:44.466Z,23.70
2018-11-02T16:17:17.539Z,24.87
2018-11-02T16:19:48.727Z,25.40
2018-11-02T16:22:20.413Z,23.67
2018-11-02T16:24:51.285Z,24.10
2018-11-02T16:27:22.375Z,23.57
2018-11-02T16:29:53.585Z,23.23
2018-11-02T16:32:25.029Z,21.37
2018-11-02T16:34:56.111Z,24.30
2018-11-02T16:37:28.673Z,24.13
2018-11-02T16:39:59.756Z,23.97
2018-11-02T16:42:30.732Z,24.50
2018-11-02T16:45:01.960Z,25.50
2018-11-02T16:47:33.706Z,24.40
2018-11-02T16:50:04.930Z,22.53
2018-11-02T16:52:35.944Z,26.93
2018-11-02T16:55:07.295Z,27.40
2018-11-02T16:57:38.859Z,25.50
2018-11-02T17:00:13.049Z,23.67
2018-11-02T17:02:44.855Z,23.97
2018-11-02T17:05:16.074Z,26.10
2018-11-02T17:07:47.281Z,25.27
2018-11-02T17:10:18.646Z,22.83
2018-11-02T17:12:51.491Z,26.40
2018-11-02T17:15:22.747Z,25.83
2018-11-02T17:17:53.961Z,27.17
2018-11-02T17:20:25.748Z,26.20
2018-11-02T17:22:57.349Z,26.10
2018-11-02T17:25:28.510Z,26.77
2018-11-02T17:27:59.854Z,25.70
2018-11-02T17:30:31.588Z,26.47
2018-11-02T17:33:03.428Z,28.10
2018-11-02T17:35:34.577Z,32.70
2018-11-02T17:38:04.783Z,30.73
2018-11-02T17:40:35.335Z,29.80
2018-11-02T17:43:06.783Z,30.37
2018-11-02T17:45:37.740Z,32.17
2018-11-02T17:48:08.614Z,33.23
2018-11-02T17:50:39.699Z,31.17
2018-11-02T17:53:11.037Z,30.93
2018-11-02T17:55:41.704Z,30.03
2018-11-02T17:58:12.104Z,31.50
2018-11-02T18:00:42.804Z,31.17
2018-11-02T18:03:13.125Z,31.27
2018-11-02T18:05:44.313Z,33.30
2018-11-02T18:08:15.404Z,35.73
2018-11-02T18:10:46.470Z,32.13
2018-11-02T18:13:17.466Z,32.03
2018-11-02T18:15:48.409Z,33.33
2018-11-02T18:18:18.938Z,30.47
2018-11-02T18:20:50.172Z,30.77
2018-11-02T18:23:21.220Z,30.50
2018-11-02T18:25:52.412Z,27.67
2018-11-02T18:28:23.593Z,27.07
2018-11-02T18:30:54.548Z,27.17
2018-11-02T18:33:25.716Z,26.03
2018-11-02T18:35:56.923Z,24.47
2018-11-02T18:38:28.143Z,24.60
2018-11-02T18:40:58.920Z,19.83
2018-11-02T18:43:30.158Z,21.80
2018-11-02T18:46:02.515Z,24.47
2018-11-02T18:48:33.827Z,27.87
2018-11-02T18:51:05.033Z,26.83
2018-11-02T18:53:37.382Z,26.77
2018-11-02T18:56:08.603Z,27.60
2018-11-02T18:58:40.006Z,21.63
2018-11-02T19:01:11.092Z,20.97
2018-11-02T19:03:42.346Z,22.17
2018-11-02T19:06:12.335Z,21.50
2018-11-02T19:08:43.741Z,19.97
2018-11-02T19:11:14.951Z,18.47
2018-11-02T19:13:45.249Z,20.77
2018-11-02T19:16:16.587Z,19.70
2018-11-02T19:18:48.257Z,17.93
2018-11-02T19:21:19.350Z,18.87
2018-11-02T19:23:50.526Z,17.37
2018-11-02T19:26:21.676Z,16.47
2018-11-02T19:28:52.544Z,46.43
2018-11-02T19:31:23.704Z,21.63
2018-11-02T19:33:55.090Z,23.07
2018-11-02T19:36:27.180Z,19.90
2018-11-02T19:38:58.515Z,22.63
2018-11-02T19:41:29.779Z,24.00
2018-11-02T19:44:00.623Z,20.53
2018-11-02T19:46:32.983Z,25.70
2018-11-02T19:49:04.457Z,30.10
2018-11-02T19:51:35.399Z,28.27
2018-11-02T19:54:06.032Z,35.10
2018-11-02T19:56:37.044Z,35.57
2018-11-02T19:59:08.776Z,32.40
2018-11-02T20:01:39.685Z,31.87
2018-11-02T20:04:11.418Z,31.97
2018-11-02T20:06:42.471Z,33.00
2018-11-02T20:09:14.036Z,32.30
2018-11-02T20:11:46.366Z,31.37
2018-11-02T20:14:17.735Z,34.40
2018-11-02T20:16:47.634Z,32.13
2018-11-02T20:19:18.351Z,34.13
2018-11-02T20:21:49.236Z,33.27
2018-11-02T20:24:19.709Z,31.83
2018-11-02T20:26:50.615Z,31.67
2018-11-02T20:29:22.167Z,32.10
2018-11-02T20:31:52.926Z,44.30
2018-11-02T20:34:24.811Z,36.00
2018-11-02T20:36:55.674Z,36.23
2018-11-02T20:39:26.774Z,41.80
2018-11-02T20:41:57.409Z,34.10
2018-11-02T20:44:28.354Z,35.70
2018-11-02T20:46:59.549Z,34.63
2018-11-02T20:49:30.258Z,33.30
2018-11-02T20:52:01.220Z,34.20
2018-11-02T20:54:32.088Z,33.07
2018-11-02T20:57:03.880Z,33.80
2018-11-02T20:59:34.986Z,35.60
2018-11-02T21:02:06.437Z,33.90
2018-11-02T21:04:37.376Z,33.97
2018-11-02T21:07:08.636Z,32.03
2018-11-02T21:09:39.734Z,31.67
2018-11-02T21:12:11.173Z,31.53
2018-11-02T21:14:42.652Z,29.93
2018-11-02T21:17:12.864Z,29.27
2018-11-02T21:19:44.970Z,31.30
2018-11-02T21:22:16.361Z,29.93
2018-11-02T21:24:47.390Z,32.60
2018-11-02T21:27:18.112Z,29.87
2018-11-02T21:29:49.278Z,31.07
2018-11-02T21:32:20.186Z,31.00
2018-11-02T21:34:50.890Z,31.30
2018-11-02T21:37:22.178Z,33.17
2018-11-02T21:39:52.934Z,32.13
2018-11-02T21:42:23.639Z,31.57
2018-11-02T21:44:54.284Z,32.93
2018-11-02T21:47:25.233Z,34.80
2018-11-02T21:49:56.253Z,35.63
2018-11-02T21:52:27.662Z,34.57
2018-11-02T21:54:58.829Z,36.23
2018-11-02T21:57:29.623Z,37.97
2018-11-02T22:00:00.689Z,37.03
2018-11-02T22:02:32.068Z,39.57
2018-11-02T22:05:03.395Z,40.30
2018-11-02T22:07:34.422Z,39.77
2018-11-02T22:10:06.271Z,38.00
2018-11-02T22:12:37.661Z,38.50
2018-11-02T22:15:09.503Z,38.70
2018-11-02T22:17:41.260Z,37.93
2018-11-02T22:20:13.985Z,41.28
2018-11-02T22:22:45.070Z,36.97
2018-11-02T22:25:16.606Z,35.83
2018-11-02T22:27:46.885Z,35.87
2018-11-02T22:30:18.498Z,34.97
2018-11-02T22:32:48.556Z,35.70
2018-11-02T22:35:20.140Z,35.10
2018-11-02T22:37:51.485Z,36.03
2018-11-02T22:40:22.480Z,42.53
2018-11-02T22:42:53.110Z,34.20
2018-11-02T22:45:23.090Z,34.93
2018-11-02T22:47:59.594Z,36.60
2018-11-02T22:50:30.614Z,35.60
2018-11-02T22:53:01.566Z,33.63
2018-11-02T22:55:32.535Z,34.27
2018-11-02T22:58:03.487Z,33.00
2018-11-02T23:00:39.143Z,33.70
2018-11-02T23:03:09.304Z,34.27
2018-11-02T23:05:40.593Z,34.07
2018-11-02T23:08:11.565Z,34.90
2018-11-02T23:10:41.938Z,33.87
2018-11-02T23:13:12.211Z,34.97
2018-11-02T23:15:42.893Z,33.63
2018-11-02T23:18:12.886Z,34.57
2018-11-02T23:20:43.738Z,32.93
2018-11-02T23:23:14.206Z,34.87
2018-11-02T23:25:45.030Z,31.33
2018-11-02T23:28:15.839Z,33.93
2018-11-02T23:30:46.729Z,32.37
2018-11-02T23:33:17.326Z,33.70
2018-11-02T23:35:47.270Z,33.87
2018-11-02T23:38:17.649Z,33.77
2018-11-02T23:40:48.349Z,32.60
2018-11-02T23:43:19.265Z,33.43
2018-11-02T23:45:50.204Z,32.07
2018-11-02T23:48:21.034Z,32.43
2018-11-02T23:50:52.124Z,30.90
2018-11-02T23:53:22.853Z,27.07
2018-11-02T23:55:53.759Z,26.57
2018-11-02T23:58:24.091Z,27.20
